createdAt,value
2019-03-06T00:00:41.128Z,95.00
2019-03-06T00:03:07.595Z,95.00
2019-03-06T00:05:34.221Z,95.00
2019-03-06T00:08:00.400Z,95.10
2019-03-06T00:10:29.924Z,95.10
2019-03-06T00:12:56.099Z,95.10
2019-03-06T00:15:22.251Z,95.00
2019-03-06T00:17:48.729Z,94.90
2019-03-06T00:20:15.191Z,94.80
2019-03-06T00:22:41.472Z,94.70
2019-03-06T00:25:08.631Z,94.80
2019-03-06T00:27:34.813Z,94.90
2019-03-06T00:30:01.180Z,95.00
2019-03-06T00:32:27.365Z,95.00
2019-03-06T00:34:56.723Z,95.10
2019-03-06T00:37:23.028Z,95.20
2019-03-06T00:39:51.297Z,95.30
2019-03-06T00:42:17.511Z,95.40
2019-03-06T00:44:43.756Z,95.40
2019-03-06T00:47:09.938Z,95.30
2019-03-06T00:49:36.393Z,95.30
2019-03-06T00:52:02.666Z,95.40
2019-03-06T00:54:28.853Z,95.40
2019-03-06T00:56:55.023Z,95.40
2019-03-06T00:59:21.182Z,95.40
2019-03-06T01:01:47.398Z,95.40
2019-03-06T01:04:13.857Z,95.60
2019-03-06T01:06:40.155Z,95.50
2019-03-06T01:09:07.231Z,95.50
2019-03-06T01:11:34.001Z,95.40
2019-03-06T01:14:00.292Z,95.40
2019-03-06T01:16:26.452Z,95.30
2019-03-06T01:18:53.009Z,95.20
2019-03-06T01:21:19.313Z,95.30
2019-03-06T01:23:45.477Z,95.30
2019-03-06T01:26:11.655Z,95.20
2019-03-06T01:28:37.836Z,95.30
2019-03-06T01:31:03.999Z,95.50
2019-03-06T01:33:38.533Z,95.50
2019-03-06T01:36:09.142Z,95.60
2019-03-06T01:38:43.207Z,95.70
2019-03-06T01:41:14.403Z,95.70
2019-03-06T01:43:45.789Z,95.70
2019-03-06T01:46:11.998Z,95.70
2019-03-06T01:48:38.209Z,95.50
2019-03-06T01:51:04.414Z,95.40
2019-03-06T01:53:30.877Z,95.40
2019-03-06T01:55:57.102Z,95.40
2019-03-06T01:58:23.679Z,95.50
2019-03-06T02:00:49.866Z,95.60
2019-03-06T02:03:16.039Z,95.60
2019-03-06T02:05:42.213Z,95.70
2019-03-06T02:08:08.519Z,95.80
2019-03-06T02:10:34.796Z,95.80
2019-03-06T02:13:01.273Z,95.80
2019-03-06T02:15:27.458Z,95.80
2019-03-06T02:17:53.640Z,95.90
2019-03-06T02:20:19.791Z,95.70
2019-03-06T02:22:45.971Z,95.50
2019-03-06T02:25:13.032Z,95.60
2019-03-06T02:27:39.512Z,95.80
2019-03-06T02:30:09.174Z,96.20
2019-03-06T02:32:35.367Z,95.80
2019-03-06T02:35:01.532Z,95.90
2019-03-06T02:37:27.788Z,95.90
2019-03-06T02:39:53.968Z,95.90
2019-03-06T02:42:20.131Z,95.80
2019-03-06T02:44:46.317Z,95.70
2019-03-06T02:47:12.692Z,95.70
2019-03-06T02:49:38.865Z,95.70
2019-03-06T02:52:05.015Z,95.60
2019-03-06T02:54:31.184Z,95.60
2019-03-06T02:56:57.345Z,95.60
2019-03-06T02:59:25.725Z,95.40
2019-03-06T03:02:06.136Z,95.40
2019-03-06T03:04:34.314Z,95.30
2019-03-06T03:07:02.446Z,95.40
2019-03-06T03:09:28.771Z,95.50
2019-03-06T03:11:54.999Z,95.40
2019-03-06T03:14:21.180Z,95.40
2019-03-06T03:16:47.341Z,95.60
2019-03-06T03:19:13.528Z,95.50
2019-03-06T03:21:39.786Z,95.40
2019-03-06T03:24:05.949Z,95.40
2019-03-06T03:26:32.445Z,95.40
2019-03-06T03:28:58.611Z,95.50
2019-03-06T03:31:24.788Z,95.40
2019-03-06T03:33:50.949Z,95.40
2019-03-06T03:36:17.124Z,95.30
2019-03-06T03:38:43.353Z,95.40
2019-03-06T03:41:09.529Z,95.50
2019-03-06T03:43:36.091Z,95.40
2019-03-06T03:46:02.375Z,95.40
2019-03-06T03:48:28.543Z,95.40
2019-03-06T03:50:54.710Z,95.30
2019-03-06T03:53:20.869Z,95.20
2019-03-06T03:55:47.027Z,95.10
2019-03-06T03:58:13.249Z,95.20
2019-03-06T04:00:39.581Z,95.10
2019-03-06T04:03:05.754Z,95.30
2019-03-06T04:05:31.939Z,95.30
2019-03-06T04:07:58.114Z,95.00
2019-03-06T04:10:26.214Z,95.00
2019-03-06T04:12:52.409Z,94.90
2019-03-06T04:15:19.161Z,94.90
2019-03-06T04:17:45.338Z,94.80
2019-03-06T04:20:15.642Z,94.80
2019-03-06T04:22:42.017Z,94.70
2019-03-06T04:25:08.975Z,94.90
2019-03-06T04:27:35.156Z,94.80
2019-03-06T04:30:02.714Z,94.80
2019-03-06T04:32:29.004Z,94.70
2019-03-06T04:34:55.161Z,94.80
2019-03-06T04:37:21.331Z,94.80
2019-03-06T04:39:47.732Z,94.80
2019-03-06T04:42:13.964Z,94.90
2019-03-06T04:44:40.132Z,94.80
2019-03-06T04:47:06.346Z,94.80
2019-03-06T04:49:32.523Z,94.90
2019-03-06T04:51:58.696Z,94.90
2019-03-06T04:54:24.889Z,94.90
2019-03-06T04:56:52.023Z,95.30
2019-03-06T04:59:18.194Z,94.90
2019-03-06T05:01:44.723Z,94.80
2019-03-06T05:04:10.888Z,94.80
2019-03-06T05:06:37.916Z,94.80
2019-03-06T05:09:05.096Z,94.90
2019-03-06T05:11:53.057Z,95.00
2019-03-06T05:14:19.268Z,94.80
2019-03-06T05:16:53.066Z,94.70
2019-03-06T05:19:19.242Z,94.60
2019-03-06T05:21:45.413Z,94.70
2019-03-06T05:24:11.618Z,94.60
2019-03-06T05:26:38.045Z,94.70
2019-03-06T05:29:04.249Z,94.60
2019-03-06T05:31:30.424Z,94.70
2019-03-06T05:33:56.641Z,94.60
2019-03-06T05:36:29.520Z,94.70
2019-03-06T05:39:05.453Z,94.70
2019-03-06T05:41:33.524Z,94.80
2019-03-06T05:43:59.709Z,94.70
2019-03-06T05:46:25.896Z,94.80
2019-03-06T05:48:52.074Z,94.70
2019-03-06T05:51:18.272Z,94.70
2019-03-06T05:53:45.891Z,94.70
2019-03-06T05:56:12.201Z,94.50
2019-03-06T05:58:38.501Z,94.40
2019-03-06T06:01:05.690Z,94.20
2019-03-06T06:03:32.995Z,94.00
2019-03-06T06:05:59.668Z,94.10
2019-03-06T06:08:25.864Z,93.90
2019-03-06T06:10:52.030Z,93.60
2019-03-06T06:13:18.500Z,93.40
2019-03-06T06:15:44.725Z,93.40
2019-03-06T06:18:10.916Z,93.20
2019-03-06T06:20:37.090Z,93.00
2019-03-06T06:23:14.051Z,92.70
2019-03-06T06:25:40.247Z,92.70
2019-03-06T06:28:06.621Z,92.50
2019-03-06T06:30:33.105Z,92.30
2019-03-06T06:32:59.268Z,92.10
2019-03-06T06:35:26.483Z,92.00
2019-03-06T06:37:52.932Z,91.80
2019-03-06T06:40:21.115Z,91.40
2019-03-06T06:42:47.276Z,91.10
2019-03-06T06:45:15.880Z,91.10
2019-03-06T06:48:09.380Z,91.00
2019-03-06T06:50:38.874Z,91.00
2019-03-06T06:53:17.974Z,91.00
2019-03-06T06:56:06.271Z,91.10
2019-03-06T06:58:46.109Z,90.50
2019-03-06T07:01:26.564Z,90.30
2019-03-06T07:04:40.537Z,90.20
2019-03-06T07:07:27.743Z,90.10
2019-03-06T07:09:58.585Z,89.00
2019-03-06T07:12:39.161Z,88.70
2019-03-06T07:15:17.324Z,88.00
2019-03-06T07:17:51.272Z,87.00
2019-03-06T07:20:19.333Z,86.20
2019-03-06T07:22:47.468Z,86.10
2019-03-06T07:25:15.591Z,84.20
2019-03-06T07:27:43.669Z,82.60
2019-03-06T07:30:15.541Z,81.60
2019-03-06T07:32:52.547Z,80.60
2019-03-06T07:38:35.037Z,76.70
2019-03-06T07:41:03.140Z,68.10
2019-03-06T07:43:47.796Z,64.70
2019-03-06T07:46:18.656Z,61.80
2019-03-06T07:49:04.109Z,60.70
2019-03-06T07:51:38.288Z,59.80
2019-03-06T07:54:22.847Z,57.90
2019-03-06T07:57:07.353Z,55.90
2019-03-06T07:59:33.528Z,54.70
2019-03-06T08:02:15.653Z,50.40
2019-03-06T08:04:52.435Z,49.50
2019-03-06T08:07:18.646Z,51.30
2019-03-06T08:09:44.815Z,50.60
2019-03-06T08:12:15.881Z,48.90
2019-03-06T08:14:52.627Z,45.70
2019-03-06T08:17:20.694Z,47.70
2019-03-06T08:20:07.462Z,50.00
2019-03-06T08:22:52.244Z,49.60
2019-03-06T08:25:32.317Z,49.70
2019-03-06T08:27:58.466Z,47.60
2019-03-06T08:30:26.721Z,44.90
2019-03-06T08:32:52.896Z,45.30
2019-03-06T08:35:19.081Z,43.80
2019-03-06T08:37:45.339Z,43.20
2019-03-06T08:40:12.149Z,42.50
2019-03-06T08:42:38.341Z,43.30
2019-03-06T08:45:07.812Z,44.10
2019-03-06T08:47:51.732Z,43.60
2019-03-06T08:50:21.900Z,42.80
2019-03-06T08:52:50.000Z,42.80
2019-03-06T08:55:18.140Z,43.10
2019-03-06T08:57:46.207Z,40.10
2019-03-06T09:00:25.472Z,41.20
2019-03-06T09:03:15.949Z,42.10
2019-03-06T09:05:50.037Z,40.70
2019-03-06T09:08:24.075Z,41.70
2019-03-06T09:11:02.529Z,41.60
2019-03-06T09:13:30.242Z,40.90
2019-03-06T09:16:07.087Z,40.30
2019-03-06T09:18:40.957Z,39.50
2019-03-06T09:21:15.290Z,39.00
2019-03-06T09:23:55.948Z,38.30
2019-03-06T09:26:24.125Z,38.30
2019-03-06T09:29:01.605Z,39.30
2019-03-06T09:31:38.640Z,38.20
2019-03-06T09:34:09.587Z,39.00
2019-03-06T09:36:40.464Z,38.40
2019-03-06T09:39:15.586Z,38.50
2019-03-06T09:41:43.728Z,38.20
2019-03-06T09:44:29.475Z,37.90
2019-03-06T09:47:15.768Z,37.10
2019-03-06T09:49:46.892Z,34.60
2019-03-06T09:52:15.247Z,35.30
2019-03-06T09:54:46.189Z,33.80
2019-03-06T09:57:20.891Z,34.10
2019-03-06T10:00:00.811Z,34.20
2019-03-06T10:02:45.067Z,33.10
2019-03-06T10:05:18.937Z,32.50
2019-03-06T10:07:50.955Z,31.20
2019-03-06T10:10:25.103Z,29.40
2019-03-06T10:13:09.704Z,29.30
2019-03-06T10:15:40.536Z,29.70
2019-03-06T10:18:09.795Z,26.30
2019-03-06T10:20:36.028Z,28.30
2019-03-06T10:23:02.479Z,28.80
2019-03-06T10:25:30.415Z,30.50
2019-03-06T10:28:05.699Z,29.70
2019-03-06T10:30:25.132Z,27.60
2019-03-06T10:32:51.648Z,26.80
2019-03-06T10:35:18.016Z,28.10
2019-03-06T10:37:44.556Z,30.20
2019-03-06T10:40:17.635Z,33.20
2019-03-06T10:42:44.008Z,32.70
2019-03-06T10:45:11.887Z,33.50
2019-03-06T10:47:38.240Z,33.40
2019-03-06T10:50:11.219Z,34.40
2019-03-06T10:52:37.401Z,32.00
2019-03-06T10:55:09.882Z,32.20
2019-03-06T10:57:36.232Z,32.40
2019-03-06T11:00:05.996Z,30.90
2019-03-06T11:02:33.752Z,30.80
2019-03-06T11:05:01.943Z,29.60
2019-03-06T11:07:28.248Z,30.80
2019-03-06T11:09:54.491Z,29.90
2019-03-06T11:12:21.792Z,29.60
2019-03-06T11:14:48.151Z,30.50
2019-03-06T11:17:14.608Z,33.00
2019-03-06T11:19:41.105Z,32.40
2019-03-06T11:22:07.385Z,31.70
2019-03-06T11:24:33.918Z,33.40
2019-03-06T11:27:00.373Z,34.00
2019-03-06T11:29:26.677Z,35.40
2019-03-06T11:31:52.947Z,33.70
2019-03-06T11:34:19.423Z,32.80
2019-03-06T11:36:46.803Z,34.20
2019-03-06T11:39:13.104Z,33.40
2019-03-06T11:41:39.803Z,33.50
2019-03-06T11:44:06.348Z,32.80
2019-03-06T11:46:32.587Z,34.00
2019-03-06T11:48:58.805Z,37.30
2019-03-06T11:51:26.391Z,36.40
2019-03-06T11:53:52.713Z,35.40
2019-03-06T11:56:19.000Z,34.70
2019-03-06T11:58:45.887Z,34.80
2019-03-06T12:01:16.552Z,34.50
2019-03-06T12:03:42.812Z,35.10
2019-03-06T12:06:08.976Z,36.30
2019-03-06T12:08:35.407Z,36.50
2019-03-06T12:11:01.568Z,36.40
2019-03-06T12:13:27.743Z,37.60
2019-03-06T12:15:53.998Z,36.70
2019-03-06T12:18:21.760Z,37.30
2019-03-06T12:20:49.141Z,37.80
2019-03-06T12:23:15.729Z,37.80
2019-03-06T12:25:42.232Z,37.30
2019-03-06T12:28:10.713Z,38.30
2019-03-06T12:30:38.811Z,38.20
2019-03-06T12:33:05.367Z,39.50
2019-03-06T12:35:31.865Z,39.10
2019-03-06T12:37:58.149Z,40.30
2019-03-06T12:40:26.813Z,41.00
2019-03-06T12:42:52.987Z,40.50
2019-03-06T12:45:19.392Z,39.30
2019-03-06T12:47:55.603Z,39.20
2019-03-06T12:50:24.329Z,39.90
2019-03-06T12:52:50.601Z,38.50
2019-03-06T12:55:16.808Z,39.70
2019-03-06T12:57:44.201Z,41.20
2019-03-06T13:00:22.388Z,41.40
2019-03-06T13:02:49.165Z,41.20
2019-03-06T13:05:17.743Z,41.00
2019-03-06T13:07:44.009Z,41.50
2019-03-06T13:10:12.384Z,40.70
2019-03-06T13:12:38.570Z,41.30
2019-03-06T13:15:11.572Z,40.70
2019-03-06T13:17:37.767Z,40.90
2019-03-06T13:20:06.532Z,42.10
2019-03-06T13:22:32.796Z,42.50
2019-03-06T13:24:59.089Z,40.80
2019-03-06T13:27:25.236Z,40.40
2019-03-06T13:29:51.411Z,42.60
2019-03-06T13:32:18.391Z,42.10
2019-03-06T13:34:50.607Z,41.00
2019-03-06T13:37:12.804Z,41.90
2019-03-06T13:39:39.004Z,41.10
2019-03-06T13:42:05.591Z,42.70
2019-03-06T13:44:31.772Z,43.00
2019-03-06T13:46:58.536Z,43.20
2019-03-06T13:49:25.016Z,43.60
2019-03-06T13:51:51.212Z,43.40
2019-03-06T13:54:17.491Z,43.20
2019-03-06T13:56:43.940Z,43.70
2019-03-06T13:59:10.184Z,43.50
2019-03-06T14:01:36.440Z,44.30
2019-03-06T14:04:02.897Z,45.50
2019-03-06T14:06:29.179Z,45.70
2019-03-06T14:08:55.484Z,45.90
2019-03-06T14:11:21.848Z,46.90
2019-03-06T14:13:48.100Z,47.70
2019-03-06T14:16:14.589Z,48.20
2019-03-06T14:18:40.772Z,47.50
2019-03-06T14:21:07.074Z,47.30
2019-03-06T14:23:35.253Z,47.90
2019-03-06T14:26:01.440Z,47.30
2019-03-06T14:28:27.597Z,46.60
2019-03-06T14:30:53.943Z,47.50
2019-03-06T14:33:20.338Z,48.00
2019-03-06T14:35:46.691Z,47.60
2019-03-06T14:38:12.883Z,47.90
2019-03-06T14:40:39.332Z,47.60
2019-03-06T14:43:06.589Z,48.20
2019-03-06T14:45:32.883Z,48.30
2019-03-06T14:47:59.264Z,48.00
2019-03-06T14:50:27.427Z,48.20
2019-03-06T14:52:53.833Z,47.50
2019-03-06T14:55:19.989Z,47.80
2019-03-06T14:57:46.292Z,48.70
2019-03-06T15:00:17.451Z,49.00
2019-03-06T15:02:43.754Z,49.30
2019-03-06T15:05:10.192Z,50.10
2019-03-06T15:07:36.419Z,50.30
2019-03-06T15:10:05.303Z,49.30
2019-03-06T15:12:32.494Z,48.70
2019-03-06T15:14:58.939Z,48.80
2019-03-06T15:17:25.108Z,49.90
2019-03-06T15:19:51.595Z,50.30
2019-03-06T15:22:17.798Z,50.50
2019-03-06T15:24:44.003Z,50.70
2019-03-06T15:27:10.452Z,50.70
2019-03-06T15:29:36.979Z,51.80
2019-03-06T15:32:03.346Z,51.50
2019-03-06T15:34:30.267Z,52.10
2019-03-06T15:36:56.783Z,52.40
2019-03-06T15:39:27.919Z,52.60
2019-03-06T15:42:00.501Z,53.20
2019-03-06T15:44:25.800Z,53.60
2019-03-06T15:46:51.968Z,54.10
2019-03-06T15:49:18.241Z,53.90
2019-03-06T15:51:44.448Z,54.30
2019-03-06T15:54:11.882Z,55.10
2019-03-06T15:56:38.974Z,55.70
2019-03-06T15:59:14.430Z,56.00
2019-03-06T16:01:33.799Z,56.30
2019-03-06T16:03:59.976Z,56.80
2019-03-06T16:06:32.116Z,57.40
2019-03-06T16:08:58.375Z,57.90
2019-03-06T16:11:24.541Z,58.00
2019-03-06T16:13:50.856Z,58.80
2019-03-06T16:16:17.196Z,59.20
2019-03-06T16:18:43.616Z,59.80
2019-03-06T16:21:09.968Z,60.20
2019-03-06T16:23:36.376Z,60.50
2019-03-06T16:26:02.754Z,60.40
2019-03-06T16:28:29.305Z,61.00
2019-03-06T16:30:55.947Z,60.80
2019-03-06T16:33:23.101Z,61.40
2019-03-06T16:35:49.387Z,61.70
2019-03-06T16:38:15.592Z,62.10
2019-03-06T16:40:41.866Z,62.80
2019-03-06T16:43:08.157Z,63.50
2019-03-06T16:45:34.668Z,63.50
2019-03-06T16:48:02.571Z,63.90
2019-03-06T16:50:28.784Z,64.00
2019-03-06T16:52:55.485Z,64.30
2019-03-06T16:55:24.096Z,64.70
2019-03-06T16:57:50.372Z,64.80
2019-03-06T17:00:19.780Z,64.70
2019-03-06T17:02:45.934Z,65.40
2019-03-06T17:05:16.028Z,65.30
2019-03-06T17:07:42.268Z,65.90
2019-03-06T17:10:09.324Z,66.30
2019-03-06T17:12:35.524Z,66.40
2019-03-06T17:15:02.130Z,66.50
2019-03-06T17:17:28.785Z,67.40
2019-03-06T17:19:54.968Z,67.50
2019-03-06T17:22:21.287Z,67.80
2019-03-06T17:24:47.452Z,67.70
2019-03-06T17:27:13.619Z,68.10
2019-03-06T17:29:40.402Z,68.80
2019-03-06T17:32:06.753Z,68.60
2019-03-06T17:34:33.936Z,68.70
2019-03-06T17:37:01.398Z,68.70
2019-03-06T17:39:28.012Z,68.90
2019-03-06T17:41:54.464Z,69.10
2019-03-06T17:44:20.643Z,69.30
2019-03-06T17:46:47.096Z,69.90
2019-03-06T17:49:13.304Z,70.00
2019-03-06T17:51:39.695Z,70.40
2019-03-06T17:54:05.855Z,71.00
2019-03-06T17:56:33.266Z,71.40
2019-03-06T17:58:59.476Z,72.00
2019-03-06T18:01:25.958Z,72.50
2019-03-06T18:03:57.002Z,72.90
2019-03-06T18:06:23.176Z,73.20
2019-03-06T18:08:49.415Z,73.50
2019-03-06T18:11:15.607Z,73.70
2019-03-06T18:13:41.871Z,73.70
2019-03-06T18:16:08.051Z,73.40
2019-03-06T18:18:34.253Z,73.40
2019-03-06T18:21:00.604Z,73.40
2019-03-06T18:23:28.273Z,73.80
2019-03-06T18:25:54.599Z,73.90
2019-03-06T18:28:20.860Z,73.60
2019-03-06T18:30:47.141Z,73.90
2019-03-06T18:33:13.399Z,74.10
2019-03-06T18:35:39.579Z,74.40
2019-03-06T18:38:05.739Z,74.60
2019-03-06T18:40:32.112Z,74.60
2019-03-06T18:42:58.672Z,74.70
2019-03-06T18:45:24.915Z,75.00
2019-03-06T18:47:51.480Z,75.10
2019-03-06T18:50:18.680Z,75.50
2019-03-06T18:52:45.229Z,75.70
2019-03-06T18:55:13.301Z,75.70
2019-03-06T18:57:39.651Z,75.90
2019-03-06T19:00:12.000Z,76.10
2019-03-06T19:02:38.378Z,76.20
2019-03-06T19:05:06.363Z,76.70
2019-03-06T19:07:32.629Z,76.90
2019-03-06T19:09:58.833Z,77.30
2019-03-06T19:12:24.984Z,77.60
2019-03-06T19:14:51.384Z,77.80
2019-03-06T19:17:17.604Z,78.00
2019-03-06T19:19:44.127Z,78.10
2019-03-06T19:22:10.407Z,78.20
2019-03-06T19:24:37.678Z,78.70
2019-03-06T19:27:04.039Z,79.40
2019-03-06T19:29:32.091Z,79.90
2019-03-06T19:31:58.278Z,80.20
2019-03-06T19:34:24.532Z,80.00
2019-03-06T19:36:50.694Z,79.80
2019-03-06T19:39:17.239Z,79.80
2019-03-06T19:41:43.415Z,79.70
2019-03-06T19:44:09.675Z,79.70
2019-03-06T19:46:36.004Z,79.60
2019-03-06T19:49:02.328Z,79.20
2019-03-06T19:51:28.555Z,78.90
2019-03-06T19:53:54.713Z,78.50
2019-03-06T19:56:20.892Z,78.20
2019-03-06T19:58:47.351Z,77.30
2019-03-06T20:01:13.560Z,76.70
2019-03-06T20:03:39.707Z,75.40
2019-03-06T20:06:05.994Z,75.10
2019-03-06T20:08:33.480Z,74.40
2019-03-06T20:10:59.776Z,74.00
2019-03-06T20:13:25.925Z,74.20
2019-03-06T20:15:53.128Z,73.60
2019-03-06T20:18:19.592Z,73.40
2019-03-06T20:20:46.095Z,73.30
2019-03-06T20:23:12.384Z,72.20
2019-03-06T20:25:38.564Z,71.80
2019-03-06T20:28:08.167Z,71.30
2019-03-06T20:30:35.695Z,70.90
2019-03-06T20:33:02.478Z,70.70
2019-03-06T20:35:28.737Z,69.90
2019-03-06T20:37:55.335Z,69.30
2019-03-06T20:40:21.721Z,68.40
2019-03-06T20:42:48.196Z,67.80
2019-03-06T20:45:16.012Z,66.40
2019-03-06T20:47:42.460Z,66.20
2019-03-06T20:50:12.415Z,66.00
2019-03-06T20:52:39.760Z,65.80
2019-03-06T20:55:09.202Z,65.20
2019-03-06T20:57:35.558Z,64.70
2019-03-06T21:00:07.575Z,64.20
2019-03-06T21:02:36.328Z,63.90
2019-03-06T21:05:04.323Z,63.60
2019-03-06T21:07:30.476Z,63.50
2019-03-06T21:09:56.832Z,63.20
2019-03-06T21:12:23.094Z,62.50
2019-03-06T21:14:49.243Z,61.10
2019-03-06T21:17:15.532Z,61.10
2019-03-06T21:19:41.748Z,61.60
2019-03-06T21:22:07.929Z,61.40
2019-03-06T21:24:35.199Z,61.60
2019-03-06T21:27:02.708Z,61.20
2019-03-06T21:29:28.997Z,60.80
2019-03-06T21:31:55.195Z,60.50
2019-03-06T21:34:22.506Z,60.40
2019-03-06T21:36:48.683Z,59.60
2019-03-06T21:39:20.094Z,59.30
2019-03-06T21:41:46.276Z,59.60
2019-03-06T21:44:12.489Z,58.10
2019-03-06T21:46:39.249Z,57.70
2019-03-06T21:49:05.654Z,58.20
2019-03-06T21:51:32.002Z,58.40
2019-03-06T21:53:58.325Z,58.20
2019-03-06T21:56:24.592Z,58.00
2019-03-06T21:58:50.858Z,57.50
2019-03-06T22:01:17.137Z,57.60
2019-03-06T22:03:43.389Z,57.50
2019-03-06T22:06:09.574Z,57.70
2019-03-06T22:08:35.812Z,57.40
2019-03-06T22:11:01.977Z,57.30
2019-03-06T22:13:28.171Z,57.30
2019-03-06T22:15:55.361Z,57.10
2019-03-06T22:18:21.811Z,57.00
2019-03-06T22:20:48.078Z,56.90
2019-03-06T22:23:14.404Z,57.00
2019-03-06T22:25:40.699Z,56.10
2019-03-06T22:28:07.050Z,55.40
2019-03-06T22:30:33.275Z,55.10
2019-03-06T22:32:59.741Z,55.00
2019-03-06T22:35:27.148Z,54.60
2019-03-06T22:37:53.898Z,54.80
2019-03-06T22:40:20.445Z,55.20
2019-03-06T22:42:46.983Z,55.50
2019-03-06T22:45:14.786Z,55.90
2019-03-06T22:47:41.046Z,56.40
2019-03-06T22:50:10.119Z,56.60
2019-03-06T22:52:36.460Z,57.00
2019-03-06T22:55:03.446Z,57.00
2019-03-06T22:57:29.619Z,57.10
2019-03-06T22:59:55.819Z,57.40
2019-03-06T23:02:21.976Z,57.70
2019-03-06T23:04:48.140Z,57.70
2019-03-06T23:07:14.319Z,57.10
2019-03-06T23:09:40.496Z,56.70
2019-03-06T23:12:06.647Z,56.40
2019-03-06T23:14:33.137Z,56.50
2019-03-06T23:16:59.288Z,56.40
2019-03-06T23:19:25.444Z,56.30
2019-03-06T23:21:51.729Z,56.30
2019-03-06T23:24:17.915Z,56.40
2019-03-06T23:26:44.107Z,56.30
2019-03-06T23:29:10.423Z,56.30
2019-03-06T23:31:36.787Z,56.30
2019-03-06T23:34:02.939Z,56.00
2019-03-06T23:36:29.123Z,56.00
2019-03-06T23:38:55.270Z,55.90
2019-03-06T23:41:21.766Z,55.80
2019-03-06T23:43:47.944Z,56.00
2019-03-06T23:46:14.103Z,55.90
2019-03-06T23:48:40.284Z,56.00
2019-03-06T23:51:08.640Z,56.10
2019-03-06T23:53:42.767Z,56.30
2019-03-06T23:56:08.953Z,56.20
2019-03-06T23:58:35.216Z,56.50
